Time;durP1;ratioP1;P1;durP2;ratioP2;P2;SDS_P1;SDS_P2;PMS_P1;PMS_P2;Temp;Humidity;BMP_temperature;BMP_pressure;BME280_temperature;BME280_humidity;BME280_pressure;Samples;Min_cycle;Max_cycle;Signal;HPM_P1;HPM_P2
2022/03/14 00:01:21;;;;;;;0.00;0.00;;;6.10;99.90;;;;;;5033214;28;20048;-77
2022/03/14 00:03:53;;;;;;;2.35;0.90;;;6.20;99.90;;;;;;5032993;28;20132;-77
2022/03/14 00:06:20;;;;;;;0.22;0.22;;;6.20;99.90;;;;;;5033194;28;20021;-79
2022/03/14 00:08:46;;;;;;;0.03;0.03;;;6.20;99.90;;;;;;5033101;28;20153;-77
2022/03/14 00:11:16;;;;;;;0.20;0.20;;;6.10;99.90;;;;;;5033137;28;20507;-77
2022/03/14 00:13:50;;;;;;;1.00;0.70;;;6.10;99.90;;;;;;5031550;28;20112;-77
2022/03/14 00:16:25;;;;;;;2.05;0.30;;;6.10;99.90;;;;;;5032702;28;20052;-77
2022/03/14 00:18:55;;;;;;;0.00;0.00;;;6.20;99.90;;;;;;5032525;28;20396;-77
2022/03/14 00:21:25;;;;;;;2.05;1.23;;;6.10;99.90;;;;;;5033153;28;20024;-77
2022/03/14 00:23:56;;;;;;;1.35;0.57;;;6.10;99.90;;;;;;5035129;28;20117;-77
2022/03/14 00:26:22;;;;;;;0.00;0.00;;;6.20;99.90;;;;;;5038505;28;20108;-78
2022/03/14 00:28:50;;;;;;;1.17;1.13;;;6.20;99.90;;;;;;5036997;28;20026;-79
2022/03/14 00:31:16;;;;;;;0.20;0.20;;;6.20;99.90;;;;;;5036871;28;20021;-79
2022/03/14 00:33:42;;;;;;;1.70;1.55;;;6.20;99.90;;;;;;5036522;28;20037;-79
2022/03/14 00:36:09;;;;;;;0.10;0.10;;;6.20;99.90;;;;;;5036804;28;20056;-77
2022/03/14 00:38:36;;;;;;;2.08;0.75;;;6.20;99.90;;;;;;5055438;28;20029;-79
2022/03/14 00:41:03;;;;;;;0.15;0.15;;;6.20;99.90;;;;;;5056534;28;20021;-77
2022/03/14 00:43:29;;;;;;;0.00;0.00;;;6.10;99.90;;;;;;5056433;28;20411;-77
2022/03/14 00:45:55;;;;;;;0.00;0.00;;;6.10;99.90;;;;;;5056838;28;20021;-79
2022/03/14 00:48:20;;;;;;;0.98;0.65;;;6.00;99.90;;;;;;5056588;28;20029;-79
2022/03/14 00:50:46;;;;;;;0.10;0.10;;;6.00;99.90;;;;;;5055640;28;20033;-79
2022/03/14 00:53:12;;;;;;;0.15;0.15;;;5.90;99.90;;;;;;5060221;28;20025;-77
2022/03/14 00:55:38;;;;;;;0.50;0.28;;;5.90;99.90;;;;;;5051575;28;20025;-77
2022/03/14 00:58:03;;;;;;;0.00;0.00;;;5.90;99.90;;;;;;5036640;28;20100;-79
2022/03/14 01:00:29;;;;;;;0.10;0.10;;;5.90;99.90;;;;;;5036319;28;20546;-77
2022/03/14 01:02:55;;;;;;;0.38;0.38;;;5.90;99.90;;;;;;5036144;28;20033;-76
2022/03/14 01:05:20;;;;;;;0.00;0.00;;;5.80;99.90;;;;;;5036253;28;20025;-77
2022/03/14 01:07:46;;;;;;;0.60;0.60;;;5.80;99.90;;;;;;5035692;28;20428;-79
2022/03/14 01:10:13;;;;;;;0.00;0.00;;;5.80;99.90;;;;;;5035764;28;20057;-78
2022/03/14 01:12:39;;;;;;;0.77;0.32;;;5.80;99.90;;;;;;5035473;28;20079;-78
2022/03/14 01:15:05;;;;;;;0.15;0.15;;;5.80;99.90;;;;;;5036243;28;20031;-79
2022/03/14 01:17:31;;;;;;;0.40;0.30;;;5.80;99.90;;;;;;5035898;28;20025;-77
2022/03/14 01:19:57;;;;;;;0.80;0.75;;;5.80;99.90;;;;;;5040584;28;20032;-77
2022/03/14 01:22:22;;;;;;;0.00;0.00;;;5.80;99.90;;;;;;5036505;28;20507;-77
2022/03/14 01:24:48;;;;;;;0.00;0.00;;;5.80;99.90;;;;;;5035675;28;20068;-77
2022/03/14 01:27:14;;;;;;;0.40;0.40;;;5.80;99.90;;;;;;5035036;28;20392;-77
2022/03/14 01:29:40;;;;;;;2.17;0.95;;;5.70;99.90;;;;;;5035697;28;20029;-80
2022/03/14 01:32:07;;;;;;;0.20;0.20;;;5.70;99.90;;;;;;5035883;28;20026;-80
2022/03/14 01:34:33;;;;;;;0.00;0.00;;;5.70;99.90;;;;;;5035777;28;20033;-77
2022/03/14 01:36:59;;;;;;;0.28;0.28;;;5.70;99.90;;;;;;5041290;28;20021;-77
2022/03/14 01:39:24;;;;;;;0.30;0.30;;;5.70;99.90;;;;;;5055499;28;20434;-79
2022/03/14 01:41:51;;;;;;;0.45;0.45;;;5.70;99.90;;;;;;5054779;28;20123;-77
2022/03/14 01:44:17;;;;;;;0.30;0.30;;;5.70;99.90;;;;;;5055077;28;20033;-77
2022/03/14 01:46:43;;;;;;;11.18;1.20;;;5.70;99.90;;;;;;5055819;28;20033;-79
2022/03/14 01:49:13;;;;;;;0.10;0.10;;;5.70;99.90;;;;;;5056362;28;20508;-79
2022/03/14 01:51:40;;;;;;;0.45;0.20;;;5.70;99.90;;;;;;5054730;28;20041;-80
2022/03/14 01:54:10;;;;;;;0.00;0.00;;;5.70;99.90;;;;;;5054967;28;20101;-76
2022/03/14 01:56:38;;;;;;;0.00;0.00;;;5.70;99.90;;;;;;5042337;28;20064;-80
2022/03/14 01:59:08;;;;;;;1.55;0.82;;;5.70;99.90;;;;;;5035207;28;20100;-77
2022/03/14 02:01:34;;;;;;;0.00;0.00;;;5.60;99.90;;;;;;5035323;28;20396;-79
2022/03/14 02:04:00;;;;;;;0.10;0.10;;;5.60;99.90;;;;;;5035155;28;20105;-77
2022/03/14 02:06:28;;;;;;;0.00;0.00;;;5.60;99.90;;;;;;5035540;28;20527;-77
2022/03/14 02:08:55;;;;;;;0.25;0.25;;;5.60;99.90;;;;;;5034781;28;20022;-76
2022/03/14 02:11:20;;;;;;;0.00;0.00;;;5.50;99.90;;;;;;5035233;28;20429;-77
2022/03/14 02:13:46;;;;;;;0.00;0.00;;;5.50;99.90;;;;;;5034722;28;20105;-77
2022/03/14 02:16:12;;;;;;;2.20;0.63;;;5.40;99.90;;;;;;5035543;28;20061;-79
2022/03/14 02:18:38;;;;;;;0.00;0.00;;;5.40;99.90;;;;;;5033146;28;20029;-77
2022/03/14 02:21:04;;;;;;;0.20;0.20;;;5.40;99.90;;;;;;5034867;28;20064;-77
2022/03/14 02:23:29;;;;;;;0.10;0.10;;;5.30;99.90;;;;;;5035027;28;20022;-79
2022/03/14 02:25:55;;;;;;;0.00;0.00;;;5.30;99.90;;;;;;5034284;28;20090;-77
2022/03/14 02:28:22;;;;;;;0.00;0.00;;;5.20;99.90;;;;;;5034705;28;20029;-79
2022/03/14 02:30:49;;;;;;;0.35;0.35;;;5.20;99.90;;;;;;5034974;28;20090;-78
2022/03/14 02:33:15;;;;;;;0.50;0.50;;;5.10;99.90;;;;;;5034545;28;20026;-79
2022/03/14 02:35:41;;;;;;;0.00;0.00;;;5.10;99.90;;;;;;5034880;28;20508;-77
2022/03/14 02:38:09;;;;;;;0.00;0.00;;;5.10;99.90;;;;;;5047985;28;20040;-77
2022/03/14 02:40:39;;;;;;;0.00;0.00;;;5.00;99.90;;;;;;5054049;28;20040;-77
2022/03/14 02:43:05;;;;;;;0.10;0.10;;;5.00;99.90;;;;;;5055293;28;20049;-78
2022/03/14 02:45:32;;;;;;;0.25;0.10;;;5.00;99.90;;;;;;5056247;28;20380;-80
2022/03/14 02:47:58;;;;;;;0.00;0.00;;;5.00;99.90;;;;;;5053529;28;20024;-77
2022/03/14 02:50:24;;;;;;;0.00;0.00;;;4.90;99.90;;;;;;5053848;28;20554;-77
2022/03/14 02:52:50;;;;;;;0.00;0.00;;;5.00;99.90;;;;;;5053358;28;20017;-76
2022/03/14 02:55:20;;;;;;;0.10;0.10;;;5.00;99.90;;;;;;5052008;28;20029;-79
2022/03/14 02:57:46;;;;;;;0.00;0.00;;;5.00;99.90;;;;;;5034415;28;20029;-77
2022/03/14 03:00:13;;;;;;;0.00;0.00;;;5.00;99.90;;;;;;5034048;28;20459;-77
2022/03/14 03:02:42;;;;;;;0.15;0.15;;;5.00;99.90;;;;;;5034069;28;20040;-80
2022/03/14 03:05:08;;;;;;;0.00;0.00;;;4.90;99.90;;;;;;5034067;28;20029;-77
2022/03/14 03:07:36;;;;;;;0.45;0.45;;;4.90;99.90;;;;;;5033998;28;20021;-77
2022/03/14 03:10:04;;;;;;;0.03;0.03;;;4.90;99.90;;;;;;5033662;28;20070;-78
2022/03/14 03:12:31;;;;;;;1.35;1.02;;;4.90;99.90;;;;;;5038805;28;20037;-77
2022/03/14 03:14:58;;;;;;;1.35;0.70;;;4.80;99.90;;;;;;5033862;28;20033;-77
2022/03/14 03:17:24;;;;;;;8.40;0.57;;;4.70;99.90;;;;;;5033759;28;20400;-77
2022/03/14 03:19:50;;;;;;;0.82;0.70;;;4.70;99.90;;;;;;5033793;28;20021;-79
2022/03/14 03:22:16;;;;;;;0.43;0.43;;;4.70;99.90;;;;;;5033926;28;20140;-79
2022/03/14 03:24:42;;;;;;;2.47;0.98;;;4.60;99.90;;;;;;5033441;28;20029;-77
2022/03/14 03:27:08;;;;;;;0.10;0.10;;;4.50;99.90;;;;;;5033075;28;20025;-77
2022/03/14 03:29:33;;;;;;;0.30;0.30;;;4.50;99.90;;;;;;5033807;28;20476;-78
2022/03/14 03:31:59;;;;;;;0.10;0.10;;;4.40;99.90;;;;;;5033328;28;20025;-78
2022/03/14 03:34:25;;;;;;;0.00;0.00;;;4.30;99.90;;;;;;5034015;28;20103;-79
2022/03/14 03:36:51;;;;;;;4.47;1.30;;;4.30;99.90;;;;;;5038027;28;20021;-77
2022/03/14 03:39:17;;;;;;;0.20;0.20;;;4.30;99.90;;;;;;5053333;28;20029;-77
2022/03/14 03:41:42;;;;;;;0.80;0.80;;;4.30;99.90;;;;;;5053153;28;20518;-79
2022/03/14 03:44:09;;;;;;;0.08;0.08;;;4.20;99.90;;;;;;5053587;28;20100;-76
2022/03/14 03:46:35;;;;;;;0.10;0.10;;;4.20;99.90;;;;;;5053742;28;20064;-77
2022/03/14 03:49:01;;;;;;;0.00;0.00;;;4.10;99.90;;;;;;5053415;28;20060;-77
2022/03/14 03:51:26;;;;;;;0.00;0.00;;;4.20;99.90;;;;;;5052880;28;20055;-77
2022/03/14 03:53:52;;;;;;;0.00;0.00;;;4.10;99.90;;;;;;5052218;28;20025;-77
2022/03/14 03:56:17;;;;;;;0.00;0.00;;;4.10;99.90;;;;;;5042866;28;20033;-77
2022/03/14 03:58:43;;;;;;;0.10;0.10;;;4.10;99.90;;;;;;5032783;28;20026;-79
2022/03/14 04:01:10;;;;;;;0.00;0.00;;;4.00;99.90;;;;;;5033072;28;20040;-77
2022/03/14 04:03:36;;;;;;;0.08;0.08;;;4.00;99.90;;;;;;5032644;28;20029;-76
2022/03/14 04:06:02;;;;;;;0.32;0.30;;;4.00;99.90;;;;;;5033305;28;20052;-78
2022/03/14 04:08:32;;;;;;;0.25;0.25;;;3.90;99.90;;;;;;5032634;28;20440;-77
2022/03/14 04:10:58;;;;;;;0.63;0.55;;;3.90;99.90;;;;;;5033099;28;20109;-77
2022/03/14 04:13:28;;;;;;;0.60;0.60;;;3.90;99.90;;;;;;5036158;28;20017;-79
2022/03/14 04:15:55;;;;;;;0.00;0.00;;;3.90;99.90;;;;;;5033237;28;20103;-79
2022/03/14 04:18:25;;;;;;;0.03;0.03;;;3.90;99.90;;;;;;5032759;28;20204;-77
2022/03/14 04:20:52;;;;;;;0.00;0.00;;;3.90;99.90;;;;;;5033012;28;20530;-77
2022/03/14 04:23:19;;;;;;;0.00;0.00;;;3.80;99.90;;;;;;5032797;28;20028;-76
2022/03/14 04:25:46;;;;;;;0.47;0.47;;;3.90;99.90;;;;;;5032736;28;20378;-77
2022/03/14 04:28:13;;;;;;;0.00;0.00;;;3.80;99.90;;;;;;5032710;28;20109;-76
2022/03/14 04:30:38;;;;;;;0.38;0.38;;;3.80;99.90;;;;;;5033012;28;20392;-78
2022/03/14 04:33:05;;;;;;;0.00;0.00;;;3.80;99.90;;;;;;5044566;28;20021;-77
2022/03/14 04:35:32;;;;;;;0.00;0.00;;;3.80;99.90;;;;;;5052494;28;20032;-77
2022/03/14 04:37:57;;;;;;;0.10;0.10;;;3.70;99.90;;;;;;5051967;28;20108;-77
2022/03/14 04:40:23;;;;;;;0.10;0.10;;;3.70;99.90;;;;;;5052680;28;20515;-76
2022/03/14 04:42:49;;;;;;;0.00;0.00;;;3.70;99.90;;;;;;5052612;28;20051;-77
2022/03/14 04:45:14;;;;;;;0.00;0.00;;;3.80;99.90;;;;;;5052460;28;20036;-76
2022/03/14 04:47:40;;;;;;;0.00;0.00;;;3.70;99.90;;;;;;5052805;28;20025;-76
2022/03/14 04:50:06;;;;;;;0.00;0.00;;;3.80;99.90;;;;;;5052034;28;20043;-78
2022/03/14 04:52:33;;;;;;;0.00;0.00;;;3.90;99.90;;;;;;5052194;28;20021;-78
2022/03/14 04:54:59;;;;;;;0.13;0.13;;;3.90;99.90;;;;;;5051753;28;20029;-78
2022/03/14 04:57:26;;;;;;;0.00;0.00;;;3.90;99.90;;;;;;5052300;28;20047;-77
2022/03/14 04:59:51;;;;;;;0.30;0.30;;;3.90;99.90;;;;;;5052266;28;20519;-76
2022/03/14 05:02:23;;;;;;;0.00;0.00;;;3.90;99.90;;;;;;5052307;28;20060;-77
2022/03/14 05:04:50;;;;;;;0.00;0.00;;;3.80;99.90;;;;;;5052548;28;20079;-77
2022/03/14 05:07:16;;;;;;;0.70;0.70;;;3.80;99.90;;;;;;5052644;28;20418;-77
2022/03/14 05:09:41;;;;;;;5.10;1.30;;;3.80;99.90;;;;;;5051960;28;20028;-76
2022/03/14 05:12:11;;;;;;;0.00;0.00;;;3.80;99.90;;;;;;5055318;28;20025;-76
2022/03/14 05:14:38;;;;;;;0.00;0.00;;;3.80;99.90;;;;;;5056207;28;20032;-77
2022/03/14 05:17:04;;;;;;;0.00;0.00;;;3.80;99.90;;;;;;5055883;28;20051;-78
2022/03/14 05:19:29;;;;;;;0.10;0.10;;;3.80;99.90;;;;;;5055738;28;20025;-79
2022/03/14 05:21:55;;;;;;;0.05;0.05;;;3.80;99.90;;;;;;5056144;28;20496;-76
2022/03/14 05:24:21;;;;;;;0.00;0.00;;;3.80;99.90;;;;;;5056018;28;20056;-76
2022/03/14 05:26:48;;;;;;;0.28;0.28;;;3.80;99.90;;;;;;5055722;28;20064;-79
2022/03/14 05:29:14;;;;;;;0.20;0.20;;;3.80;99.90;;;;;;5055185;28;20044;-79
2022/03/14 05:31:41;;;;;;;0.80;0.80;;;3.90;99.90;;;;;;5055878;28;20021;-79
2022/03/14 05:34:07;;;;;;;0.00;0.00;;;3.90;99.90;;;;;;5055768;28;20115;-76
2022/03/14 05:36:33;;;;;;;0.00;0.00;;;3.90;99.90;;;;;;5055729;28;20365;-79
2022/03/14 05:38:59;;;;;;;0.00;0.00;;;3.90;99.90;;;;;;5055421;28;20032;-76
2022/03/14 05:41:24;;;;;;;0.00;0.00;;;3.90;99.90;;;;;;5055868;28;20021;-79
2022/03/14 05:43:50;;;;;;;0.00;0.00;;;3.80;99.90;;;;;;5055517;28;20029;-79
2022/03/14 05:46:15;;;;;;;0.00;0.00;;;3.80;99.90;;;;;;5055475;28;20043;-79
2022/03/14 05:48:41;;;;;;;0.00;0.00;;;3.80;99.90;;;;;;5054911;28;20399;-77
2022/03/14 05:51:07;;;;;;;0.00;0.00;;;3.80;99.90;;;;;;5055385;28;20055;-76
2022/03/14 05:53:34;;;;;;;0.20;0.20;;;3.80;99.90;;;;;;5054945;28;20021;-77
2022/03/14 05:56:00;;;;;;;0.55;0.28;;;3.80;99.90;;;;;;5053660;28;20020;-79
2022/03/14 05:58:25;;;;;;;6.90;0.47;;;3.80;99.90;;;;;;5037986;28;20103;-76
2022/03/14 06:00:54;;;;;;;0.20;0.20;;;3.80;99.90;;;;;;5055206;28;20025;-79
2022/03/14 06:03:20;;;;;;;0.00;0.00;;;3.70;99.90;;;;;;5054975;28;20033;-77
2022/03/14 06:05:49;;;;;;;0.90;0.57;;;3.70;99.90;;;;;;5055195;28;20052;-79
2022/03/14 06:08:16;;;;;;;0.00;0.00;;;3.60;99.90;;;;;;5054545;28;20117;-76
2022/03/14 06:10:46;;;;;;;0.10;0.10;;;3.60;99.90;;;;;;5055093;28;20546;-78
2022/03/14 06:13:13;;;;;;;0.00;0.00;;;3.60;99.90;;;;;;5055046;28;20063;-78
2022/03/14 06:15:40;;;;;;;0.10;0.10;;;3.60;99.90;;;;;;5057045;28;20088;-77
2022/03/14 06:18:05;;;;;;;0.00;0.00;;;3.60;99.90;;;;;;5054135;28;20025;-78
2022/03/14 06:20:31;;;;;;;0.10;0.10;;;3.60;99.90;;;;;;5055055;28;20035;-77
2022/03/14 06:22:57;;;;;;;0.10;0.10;;;3.50;99.90;;;;;;5053444;28;20048;-76
2022/03/14 06:25:23;;;;;;;0.00;0.00;;;3.50;99.90;;;;;;5054289;28;20059;-79
2022/03/14 06:27:49;;;;;;;0.00;0.00;;;3.50;99.90;;;;;;5054469;28;20025;-79
2022/03/14 06:30:15;;;;;;;0.00;0.00;;;3.50;99.90;;;;;;5054425;28;20029;-79
2022/03/14 06:32:42;;;;;;;0.03;0.03;;;3.50;99.90;;;;;;5054325;28;20032;-76
2022/03/14 06:35:12;;;;;;;0.00;0.00;;;3.60;99.90;;;;;;5054816;28;20043;-78
2022/03/14 06:37:38;;;;;;;0.00;0.00;;;3.60;99.90;;;;;;5054605;28;20033;-77
2022/03/14 06:40:05;;;;;;;0.00;0.00;;;3.60;99.90;;;;;;5050374;28;20024;-76
2022/03/14 06:42:31;;;;;;;0.13;0.13;;;3.60;99.90;;;;;;5047930;28;20109;-76
2022/03/14 06:45:01;;;;;;;0.10;0.10;;;3.60;99.90;;;;;;5053724;28;20100;-76
2022/03/14 06:47:27;;;;;;;0.10;0.10;;;3.70;99.90;;;;;;5054272;28;20032;-76
2022/03/14 06:49:53;;;;;;;0.00;0.00;;;3.60;99.90;;;;;;5053451;28;20021;-76
2022/03/14 06:52:19;;;;;;;0.10;0.10;;;3.60;99.90;;;;;;5053248;28;20086;-75
2022/03/14 06:54:45;;;;;;;0.00;0.00;;;3.60;99.90;;;;;;5054181;28;20109;-76
2022/03/14 06:57:11;;;;;;;0.10;0.10;;;3.60;99.90;;;;;;5038985;28;20492;-75
2022/03/14 06:59:37;;;;;;;0.10;0.10;;;3.60;99.90;;;;;;5047771;28;20028;-75
2022/03/14 07:02:04;;;;;;;0.25;0.25;;;3.70;99.90;;;;;;5052374;28;20031;-75
2022/03/14 07:04:30;;;;;;;0.00;0.00;;;3.70;99.90;;;;;;5051568;28;20036;-75
2022/03/14 07:06:56;;;;;;;0.22;0.22;;;3.80;99.90;;;;;;5052028;28;20389;-75
2022/03/14 07:09:22;;;;;;;0.00;0.00;;;3.90;99.90;;;;;;5050032;28;20017;-75
2022/03/14 07:11:51;;;;;;;0.00;0.00;;;3.90;99.90;;;;;;5052465;28;20028;-75
2022/03/14 07:14:19;;;;;;;0.90;0.57;;;4.00;99.90;;;;;;5053221;28;20027;-75
2022/03/14 07:16:45;;;;;;;0.00;0.00;;;4.00;99.90;;;;;;5053153;28;20039;-75
2022/03/14 07:19:11;;;;;;;0.00;0.00;;;4.10;99.90;;;;;;5051834;28;20025;-75
2022/03/14 07:21:36;;;;;;;0.00;0.00;;;4.20;99.90;;;;;;5053293;28;20443;-75
2022/03/14 07:24:02;;;;;;;0.00;0.00;;;4.20;99.90;;;;;;5051848;28;20119;-75
2022/03/14 07:26:28;;;;;;;0.00;0.00;;;4.30;99.90;;;;;;5053220;28;20029;-74
2022/03/14 07:28:53;;;;;;;0.47;0.47;;;4.40;99.90;;;;;;5053248;28;20020;-75
2022/03/14 07:31:20;;;;;;;0.00;0.00;;;4.50;99.90;;;;;;5052327;28;20093;-76
2022/03/14 07:33:47;;;;;;;0.00;0.00;;;4.60;99.90;;;;;;5050490;28;20021;-75
2022/03/14 07:36:13;;;;;;;0.10;0.10;;;4.80;99.90;;;;;;5043553;28;20477;-75
2022/03/14 07:38:39;;;;;;;0.00;0.00;;;4.90;99.90;;;;;;5046740;28;20109;-75
2022/03/14 07:41:05;;;;;;;0.00;0.00;;;5.00;99.90;;;;;;5047852;28;20105;-75
2022/03/14 07:43:31;;;;;;;0.10;0.10;;;5.10;99.90;;;;;;5038081;28;20498;-75
2022/03/14 07:45:57;;;;;;;0.00;0.00;;;5.30;99.90;;;;;;5030203;28;20476;-75
2022/03/14 07:48:23;;;;;;;0.00;0.00;;;5.90;99.90;;;;;;5041577;28;20021;-75
2022/03/14 07:50:49;;;;;;;0.30;0.30;;;7.50;99.90;;;;;;5049034;28;20435;-75
2022/03/14 07:53:15;;;;;;;0.00;0.00;;;9.50;99.90;;;;;;5051403;28;20031;-75
2022/03/14 07:55:40;;;;;;;0.00;0.00;;;10.50;99.90;;;;;;5048405;28;20013;-75
2022/03/14 07:58:06;;;;;;;0.47;0.47;;;10.80;99.90;;;;;;5049601;28;20480;-76
2022/03/14 08:00:32;;;;;;;0.00;0.00;;;9.70;99.90;;;;;;5049388;28;20025;-75
2022/03/14 08:02:57;;;;;;;0.00;0.00;;;8.50;99.90;;;;;;5051323;28;20435;-75
2022/03/14 08:05:25;;;;;;;0.00;0.00;;;7.80;99.90;;;;;;5050485;28;20071;-75
2022/03/14 08:07:52;;;;;;;0.00;0.00;;;7.40;99.90;;;;;;5042039;28;20108;-75
2022/03/14 08:10:18;;;;;;;0.00;0.00;;;7.30;99.90;;;;;;5036660;28;20437;-75
2022/03/14 08:12:48;;;;;;;0.20;0.20;;;7.30;99.90;;;;;;5048917;28;20500;-75
2022/03/14 08:15:29;;;;;;;5.38;1.85;;;7.40;99.90;;;;;;5041575;28;20485;-75
2022/03/14 08:17:57;;;;;;;0.00;0.00;;;7.70;99.90;;;;;;5050862;28;20071;-76
2022/03/14 08:20:25;;;;;;;0.00;0.00;;;8.10;99.90;;;;;;5044859;28;20082;-76
2022/03/14 08:22:52;;;;;;;0.00;0.00;;;8.60;99.90;;;;;;5047423;28;20021;-75
2022/03/14 08:25:19;;;;;;;0.00;0.00;;;8.90;99.90;;;;;;5049787;28;20461;-75
2022/03/14 08:27:44;;;;;;;0.00;0.00;;;9.00;99.90;;;;;;5048817;28;20017;-77
2022/03/14 08:30:10;;;;;;;0.00;0.00;;;9.30;99.90;;;;;;5048884;28;20022;-75
2022/03/14 08:32:39;;;;;;;0.10;0.10;;;9.60;99.90;;;;;;5048779;28;20020;-75
2022/03/14 08:35:09;;;;;;;0.00;0.00;;;10.00;99.90;;;;;;5042785;28;20033;-75
2022/03/14 08:37:40;;;;;;;6.50;1.67;;;10.40;99.90;;;;;;5049914;28;20048;-77
2022/03/14 08:40:09;;;;;;;0.57;0.40;;;10.80;99.90;;;;;;5058714;28;20020;-77
2022/03/14 08:42:35;;;;;;;0.00;0.00;;;10.90;99.90;;;;;;5065454;28;20045;-77
2022/03/14 08:45:02;;;;;;;0.45;0.45;;;10.80;99.90;;;;;;5061171;28;20047;-77
2022/03/14 08:47:28;;;;;;;0.30;0.30;;;11.10;99.90;;;;;;5054828;28;20029;-75
2022/03/14 08:49:53;;;;;;;0.00;0.00;;;11.50;99.90;;;;;;5049811;28;20025;-77
2022/03/14 08:52:19;;;;;;;0.00;0.00;;;11.70;99.90;;;;;;5050069;28;20028;-77
2022/03/14 08:54:45;;;;;;;0.10;0.10;;;11.90;99.90;;;;;;5051148;28;20020;-77
2022/03/14 08:57:11;;;;;;;0.00;0.00;;;11.60;99.90;;;;;;5051142;28;20025;-75
2022/03/14 08:59:36;;;;;;;0.00;0.00;;;11.50;99.90;;;;;;5052683;28;21153;-75
2022/03/14 09:02:02;;;;;;;2.20;0.20;;;11.50;99.90;;;;;;5052138;28;20017;-75
2022/03/14 09:04:28;;;;;;;0.10;0.05;;;12.10;99.90;;;;;;5050037;28;20025;-75
2022/03/14 09:06:54;;;;;;;0.95;0.10;;;12.90;99.90;;;;;;5049397;28;20037;-78
2022/03/14 09:09:20;;;;;;;0.00;0.00;;;13.20;99.90;;;;;;5049984;28;20017;-78
2022/03/14 09:11:45;;;;;;;0.00;0.00;;;13.50;99.90;;;;;;5049818;28;20079;-75
2022/03/14 09:14:11;;;;;;;0.00;0.00;;;13.30;99.90;;;;;;5049391;28;20044;-75
2022/03/14 09:16:37;;;;;;;0.00;0.00;;;13.20;99.90;;;;;;5048387;28;20400;-78
2022/03/14 09:19:03;;;;;;;0.22;0.00;;;13.20;99.90;;;;;;5049224;28;20032;-77
2022/03/14 09:21:33;;;;;;;0.77;0.35;;;12.90;99.90;;;;;;5050897;28;20033;-77
2022/03/14 09:24:00;;;;;;;0.75;0.13;;;12.80;99.90;;;;;;5049611;28;20420;-77
2022/03/14 09:26:25;;;;;;;0.00;0.00;;;12.40;99.90;;;;;;5048268;28;20032;-75
2022/03/14 09:28:51;;;;;;;0.15;0.10;;;12.20;99.90;;;;;;5047091;28;20373;-77
2022/03/14 09:31:17;;;;;;;0.40;0.30;;;12.10;99.90;;;;;;5043471;28;20031;-75
2022/03/14 09:33:44;;;;;;;0.00;0.00;;;12.10;99.90;;;;;;5049346;28;20566;-77
2022/03/14 09:36:09;;;;;;;0.00;0.00;;;12.20;99.90;;;;;;5048206;28;20045;-76
2022/03/14 09:38:35;;;;;;;0.00;0.00;;;12.30;99.90;;;;;;5047632;28;20506;-75
2022/03/14 09:41:03;;;;;;;0.13;0.10;;;12.70;99.90;;;;;;5050183;28;20028;-76
2022/03/14 09:43:31;;;;;;;0.03;0.03;;;13.20;99.90;;;;;;5049160;28;20037;-77
2022/03/14 09:45:59;;;;;;;0.00;0.00;;;13.70;99.90;;;;;;5050483;28;20108;-76
2022/03/14 09:48:26;;;;;;;5.72;0.30;;;14.00;99.90;;;;;;5049583;28;20036;-75
2022/03/14 09:50:53;;;;;;;0.00;0.00;;;14.10;99.90;;;;;;5049576;28;20017;-77
2022/03/14 09:53:18;;;;;;;1.02;0.17;;;14.20;99.90;;;;;;5047791;28;20021;-77
2022/03/14 09:55:46;;;;;;;0.13;0.13;;;13.90;99.90;;;;;;5048461;28;20029;-74
2022/03/14 09:58:19;;;;;;;0.08;0.08;;;13.30;99.90;;;;;;5058279;28;20072;-75
2022/03/14 10:00:45;;;;;;;;;;;13.10;99.90;;;;;;5077140;28;20017;-76
2022/03/14 10:03:13;;;;;;;0.10;0.10;;;13.10;99.90;;;;;;5070278;28;19915;-76
2022/03/14 10:05:40;;;;;;;0.45;0.10;;;13.00;99.90;;;;;;5048676;28;20021;-78
2022/03/14 10:08:06;;;;;;;0.10;0.10;;;13.10;99.90;;;;;;5049370;28;20024;-75
2022/03/14 10:10:32;;;;;;;0.08;0.08;;;13.00;99.90;;;;;;5051362;28;20017;-76
2022/03/14 10:12:59;;;;;;;0.00;0.00;;;13.20;99.90;;;;;;5049919;28;20028;-74
2022/03/14 10:15:27;;;;;;;2.45;0.50;;;13.10;99.90;;;;;;5053233;28;20119;-78
2022/03/14 10:17:57;;;;;;;0.17;0.17;;;13.30;99.90;;;;;;5038381;28;20029;-79
2022/03/14 10:20:24;;;;;;;0.05;0.05;;;13.40;99.90;;;;;;5033669;28;20037;-75
2022/03/14 10:22:50;;;;;;;0.55;0.50;;;13.50;99.90;;;;;;5040497;28;20028;-73
2022/03/14 10:25:20;;;;;;;0.00;0.00;;;13.40;99.90;;;;;;5053246;28;20112;-74
2022/03/14 10:27:51;;;;;;;4.32;1.77;;;13.30;99.90;;;;;;5052668;28;20124;-74
2022/03/14 10:30:33;;;;;;;0.00;0.00;;;13.50;99.90;;;;;;5053130;28;20456;-72
2022/03/14 10:33:08;;;;;;;0.38;0.38;;;13.60;99.90;;;;;;5052861;28;20024;-72
2022/03/14 10:35:36;;;;;;;0.00;0.00;;;13.50;99.90;;;;;;5052606;28;20424;-73
2022/03/14 10:38:07;;;;;;;0.00;0.00;;;13.70;99.90;;;;;;5051776;28;20040;-73
2022/03/14 10:40:34;;;;;;;0.60;0.25;;;13.80;99.90;;;;;;5052281;28;20029;-77
2022/03/14 10:43:01;;;;;;;0.00;0.00;;;13.70;99.90;;;;;;5044675;28;20504;-77
2022/03/14 10:45:30;;;;;;;1.52;0.35;;;13.50;99.90;;;;;;5043427;28;20036;-73
2022/03/14 10:47:57;;;;;;;0.20;0.20;;;13.50;99.90;;;;;;5051987;28;20021;-78
2022/03/14 10:50:33;;;;;;;0.10;0.10;;;13.70;99.90;;;;;;5051679;28;20037;-73
2022/03/14 10:53:16;;;;;;;0.10;0.10;;;14.00;99.90;;;;;;5052124;28;20013;-73
2022/03/14 10:55:56;;;;;;;0.30;0.30;;;13.90;99.90;;;;;;5050114;28;20033;-73
2022/03/14 10:58:28;;;;;;;0.10;0.10;;;13.90;99.90;;;;;;5032199;28;20025;-73
2022/03/14 11:00:57;;;;;;;0.30;0.20;;;14.00;99.90;;;;;;5032692;28;20058;-73
2022/03/14 11:03:25;;;;;;;0.20;0.20;;;14.00;99.90;;;;;;5031947;28;20052;-73
2022/03/14 11:05:53;;;;;;;0.10;0.10;;;14.10;99.90;;;;;;5044793;28;20021;-73
2022/03/14 11:08:30;;;;;;;0.00;0.00;;;14.20;99.90;;;;;;5051269;28;20404;-73
2022/03/14 11:10:58;;;;;;;0.40;0.10;;;14.30;99.90;;;;;;5052227;28;20025;-73
2022/03/14 11:13:24;;;;;;;0.00;0.00;;;14.40;99.90;;;;;;5052270;28;20032;-73
2022/03/14 11:15:50;;;;;;;0.00;0.00;;;14.20;99.90;;;;;;5052638;28;20036;-73
2022/03/14 11:18:21;;;;;;;0.17;0.15;;;14.20;99.90;;;;;;5045428;28;20384;-73
2022/03/14 11:20:47;;;;;;;0.20;0.20;;;14.20;99.90;;;;;;5051359;28;20496;-73
2022/03/14 11:23:14;;;;;;;1.65;0.65;;;14.20;99.90;;;;;;5048257;28;20033;-73
2022/03/14 11:25:44;;;;;;;0.10;0.10;;;14.30;99.90;;;;;;5049433;28;20049;-73
2022/03/14 11:28:22;;;;;;;0.10;0.10;;;14.30;99.90;;;;;;5050188;28;20033;-73
2022/03/14 11:30:58;;;;;;;0.10;0.10;;;14.30;99.90;;;;;;5042767;28;20017;-73
2022/03/14 11:33:24;;;;;;;0.15;0.15;;;14.40;99.90;;;;;;5039532;28;20114;-73
2022/03/14 11:35:51;;;;;;;0.05;0.05;;;14.30;99.90;;;;;;5049348;28;20025;-74
2022/03/14 11:38:17;;;;;;;0.60;0.10;;;14.40;99.90;;;;;;5048317;28;20509;-76
2022/03/14 11:40:44;;;;;;;0.00;0.00;;;14.60;99.90;;;;;;5044337;28;20021;-79
2022/03/14 11:43:11;;;;;;;1.85;0.17;;;14.80;99.90;;;;;;5044897;28;20037;-74
2022/03/14 11:45:37;;;;;;;0.22;0.22;;;15.10;99.90;;;;;;5044304;28;20175;-74
2022/03/14 11:48:06;;;;;;;4.75;0.10;;;15.20;99.90;;;;;;5045932;28;20045;-74
2022/03/14 11:50:49;;;;;;;2.17;0.28;;;15.30;99.90;;;;;;5049475;28;20070;-73
2022/03/14 11:53:29;;;;;;;0.00;0.00;;;15.40;99.90;;;;;;5049204;28;20385;-75
2022/03/14 11:56:07;;;;;;;0.50;0.13;;;15.40;99.90;;;;;;5042441;28;20036;-76
2022/03/14 11:58:42;;;;;;;0.57;0.28;;;15.40;99.90;;;;;;5048934;28;20025;-75
2022/03/14 12:01:23;;;;;;;0.73;0.17;;;15.30;99.90;;;;;;5049124;28;20450;-78
2022/03/14 12:03:59;;;;;;;0.10;0.10;;;15.40;99.90;;;;;;5050443;28;20158;-74
2022/03/14 12:06:50;;;;;;;0.30;0.30;;;15.40;99.90;;;;;;5048920;28;20533;-73
2022/03/14 12:09:25;;;;;;;0.30;0.20;;;15.50;99.90;;;;;;5065410;28;20326;-74
2022/03/14 12:11:52;;;;;;;0.00;0.00;;;15.50;99.90;;;;;;5053701;28;20048;-73
2022/03/14 12:15:03;;;;;;;0.13;0.13;;;15.60;99.90;;;;;;5066659;28;20031;-73
2022/03/14 12:17:31;;;;;;;0.00;0.00;;;15.60;99.90;;;;;;5043811;28;20500;-73
2022/03/14 12:19:58;;;;;;;0.28;0.10;;;15.50;99.90;;;;;;5064856;28;20021;-78
2022/03/14 12:22:29;;;;;;;0.15;0.15;;;15.80;99.90;;;;;;5053505;28;20462;-73
2022/03/14 12:24:56;;;;;;;0.30;0.30;;;16.10;99.90;;;;;;5060717;28;20035;-78
2022/03/14 12:27:33;;;;;;;1.08;0.52;;;15.90;99.90;;;;;;5057127;28;20503;-78
2022/03/14 12:29:59;;;;;;;0.00;0.00;;;15.90;99.90;;;;;;5055546;28;20024;-74
2022/03/14 12:32:31;;;;;;;0.10;0.10;;;15.90;99.90;;;;;;5055672;28;20013;-74
2022/03/14 12:35:06;;;;;;;0.28;0.05;;;15.70;99.90;;;;;;5061607;28;20103;-74
2022/03/14 12:37:50;;;;;;;0.40;0.05;;;15.60;99.90;;;;;;5056047;28;20057;-73
2022/03/14 12:40:21;;;;;;;0.38;0.15;;;15.70;99.90;;;;;;5039154;28;20089;-77
2022/03/14 12:42:53;;;;;;;0.10;0.05;;;15.80;99.90;;;;;;5060912;28;20055;-75
2022/03/14 12:45:35;;;;;;;0.60;0.25;;;15.80;99.90;;;;;;5063917;28;20620;-75
2022/03/14 12:48:14;;;;;;;0.40;0.25;;;16.10;99.90;;;;;;5053843;28;20092;-77
2022/03/14 12:50:48;;;;;;;0.35;0.13;;;16.10;99.90;;;;;;5046909;28;20034;-74
2022/03/14 12:53:19;;;;;;;1.77;0.60;;;16.10;99.90;;;;;;5049253;28;20087;-77
2022/03/14 12:55:47;;;;;;;0.75;0.40;;;16.00;99.90;;;;;;5050758;28;20024;-74